createdAt,value
2017-08-10T00:00:17.522Z,15.40
2017-08-10T00:02:45.836Z,15.30
2017-08-10T00:05:14.160Z,15.30
2017-08-10T00:07:42.466Z,15.30
2017-08-10T00:10:10.791Z,15.20
2017-08-10T00:12:39.103Z,15.20
2017-08-10T00:15:07.435Z,15.20
2017-08-10T00:17:35.743Z,15.20
2017-08-10T00:20:04.070Z,15.10
2017-08-10T00:22:32.371Z,15.10
2017-08-10T00:25:00.717Z,15.10
2017-08-10T00:27:29.022Z,15.20
2017-08-10T00:29:57.326Z,15.20
2017-08-10T00:32:25.664Z,15.20
2017-08-10T00:34:53.968Z,15.20
2017-08-10T00:37:22.304Z,15.10
2017-08-10T00:39:50.610Z,15.20
2017-08-10T00:42:18.928Z,15.10
2017-08-10T00:44:47.235Z,15.10
2017-08-10T00:47:15.572Z,15.10
2017-08-10T00:49:43.879Z,15.20
2017-08-10T00:52:12.191Z,15.10
2017-08-10T00:54:40.519Z,15.10
2017-08-10T00:57:08.839Z,15.10
2017-08-10T00:59:37.167Z,15.20
2017-08-10T01:02:05.496Z,15.20
2017-08-10T01:04:33.819Z,15.20
2017-08-10T01:07:02.152Z,15.20
2017-08-10T01:09:30.479Z,15.10
2017-08-10T01:11:58.794Z,15.20
2017-08-10T01:14:27.136Z,15.20
2017-08-10T01:16:55.480Z,15.10
2017-08-10T01:19:23.783Z,15.20
2017-08-10T01:21:52.126Z,15.20
2017-08-10T01:24:20.443Z,15.20
2017-08-10T01:26:48.779Z,15.10
2017-08-10T01:29:17.090Z,15.10
2017-08-10T01:31:45.415Z,15.10
2017-08-10T01:34:13.711Z,15.10
2017-08-10T01:36:42.042Z,15.00
2017-08-10T01:39:10.349Z,15.00
2017-08-10T01:41:38.659Z,15.00
2017-08-10T01:44:07.015Z,15.00
2017-08-10T01:46:35.323Z,15.00
2017-08-10T01:49:03.643Z,15.00
2017-08-10T01:51:31.949Z,15.00
2017-08-10T01:54:00.276Z,14.90
2017-08-10T01:56:28.578Z,14.90
2017-08-10T01:58:56.909Z,14.90
2017-08-10T02:01:25.218Z,14.90
2017-08-10T02:03:53.552Z,14.90
2017-08-10T02:06:21.871Z,14.90
2017-08-10T02:08:50.187Z,14.90
2017-08-10T02:11:18.515Z,14.90
2017-08-10T02:13:46.827Z,14.90
2017-08-10T02:16:15.157Z,14.90
2017-08-10T02:18:43.462Z,14.90
2017-08-10T02:21:11.791Z,14.90
2017-08-10T02:23:40.091Z,14.90
2017-08-10T02:26:08.427Z,14.90
2017-08-10T02:28:36.741Z,14.90
2017-08-10T02:31:05.195Z,14.80
2017-08-10T02:33:33.517Z,14.80
2017-08-10T02:36:01.821Z,14.80
2017-08-10T02:38:30.149Z,14.80
2017-08-10T02:40:58.479Z,14.80
2017-08-10T02:43:26.804Z,14.80
2017-08-10T02:45:55.127Z,14.80
2017-08-10T02:48:23.455Z,14.80
2017-08-10T02:50:51.776Z,14.80
2017-08-10T02:53:20.107Z,14.80
2017-08-10T02:55:48.419Z,14.80
2017-08-10T02:58:16.749Z,14.80
2017-08-10T03:00:45.056Z,14.80
2017-08-10T03:03:13.358Z,14.80
2017-08-10T03:05:41.690Z,14.80
2017-08-10T03:08:09.992Z,14.80
2017-08-10T03:10:38.319Z,14.80
2017-08-10T03:13:06.622Z,14.80
2017-08-10T03:15:34.951Z,14.80
2017-08-10T03:18:03.261Z,14.80
2017-08-10T03:20:31.600Z,14.70
2017-08-10T03:22:59.906Z,14.70
2017-08-10T03:25:28.239Z,14.70
2017-08-10T03:27:56.547Z,14.70
2017-08-10T03:30:24.852Z,14.70
2017-08-10T03:32:53.181Z,14.70
2017-08-10T03:35:21.491Z,14.70
2017-08-10T03:37:49.820Z,14.80
2017-08-10T03:40:18.131Z,14.70
2017-08-10T03:42:46.466Z,14.80
2017-08-10T03:45:14.777Z,14.80
2017-08-10T03:47:43.115Z,14.80
2017-08-10T03:50:11.423Z,14.90
2017-08-10T03:52:39.741Z,14.90
2017-08-10T03:55:08.068Z,14.90
2017-08-10T03:57:36.377Z,14.90
2017-08-10T04:00:04.706Z,14.90
2017-08-10T04:02:33.011Z,14.90
2017-08-10T04:05:01.348Z,14.90
2017-08-10T04:07:29.668Z,14.90
2017-08-10T04:09:57.987Z,14.90
2017-08-10T04:12:26.315Z,14.90
2017-08-10T04:14:54.629Z,14.90
2017-08-10T04:17:22.955Z,15.00
2017-08-10T04:19:51.276Z,14.90
2017-08-10T04:22:19.612Z,14.90
2017-08-10T04:24:47.924Z,14.90
2017-08-10T04:27:16.255Z,14.90
2017-08-10T04:29:44.564Z,14.90
2017-08-10T04:32:12.903Z,14.90
2017-08-10T04:34:41.211Z,14.90
2017-08-10T04:37:09.542Z,15.00
2017-08-10T04:39:37.855Z,15.00
2017-08-10T04:42:06.182Z,15.00
2017-08-10T04:44:34.503Z,15.00
2017-08-10T04:47:02.847Z,15.00
2017-08-10T04:49:31.159Z,15.00
2017-08-10T04:51:58.711Z,15.00
2017-08-10T04:54:27.040Z,15.10
2017-08-10T04:56:55.357Z,15.10
2017-08-10T04:59:23.682Z,15.10
2017-08-10T05:01:51.995Z,15.10
2017-08-10T05:04:20.346Z,15.10
2017-08-10T05:06:48.663Z,15.10
2017-08-10T05:09:17.000Z,15.10
2017-08-10T05:11:45.314Z,15.10
2017-08-10T05:14:13.660Z,15.10
2017-08-10T05:16:41.979Z,15.10
2017-08-10T05:19:10.292Z,15.20
2017-08-10T05:21:38.624Z,15.20
2017-08-10T05:24:06.938Z,15.20
2017-08-10T05:26:35.272Z,15.20
2017-08-10T05:29:03.608Z,15.20
2017-08-10T05:31:31.952Z,15.20
2017-08-10T05:34:00.263Z,15.10
2017-08-10T05:36:28.608Z,15.10
2017-08-10T05:38:56.919Z,15.00
2017-08-10T05:41:25.246Z,15.00
2017-08-10T05:43:53.596Z,15.00
2017-08-10T05:46:21.919Z,15.00
2017-08-10T05:48:50.260Z,15.00
2017-08-10T05:51:18.580Z,15.00
2017-08-10T05:53:46.914Z,15.00
2017-08-10T05:56:15.231Z,15.00
2017-08-10T05:58:43.567Z,15.10
2017-08-10T06:01:11.879Z,15.10
2017-08-10T06:03:40.187Z,15.10
2017-08-10T06:06:08.515Z,15.20
2017-08-10T06:08:36.834Z,15.20
2017-08-10T06:11:05.171Z,15.20
2017-08-10T06:13:33.491Z,15.30
2017-08-10T06:16:01.826Z,15.30
2017-08-10T06:18:30.136Z,15.30
2017-08-10T06:20:58.479Z,15.30
2017-08-10T06:23:26.806Z,15.40
2017-08-10T06:25:55.158Z,15.40
2017-08-10T06:28:23.468Z,15.40
2017-08-10T06:30:51.779Z,15.40
2017-08-10T06:33:20.110Z,15.40
2017-08-10T06:35:48.422Z,15.40
2017-08-10T06:38:16.748Z,15.40
2017-08-10T06:40:45.057Z,15.40
2017-08-10T06:43:13.391Z,15.30
2017-08-10T06:45:41.695Z,15.30
2017-08-10T06:48:10.031Z,15.20
2017-08-10T06:50:38.343Z,15.20
2017-08-10T06:53:06.688Z,15.30
2017-08-10T06:55:35.000Z,15.30
2017-08-10T06:58:03.319Z,15.30
2017-08-10T07:00:31.656Z,15.40
2017-08-10T07:02:59.980Z,15.40
2017-08-10T07:05:28.347Z,15.40
2017-08-10T07:07:56.655Z,15.40
2017-08-10T07:10:25.026Z,15.40
2017-08-10T07:12:53.327Z,15.50
2017-08-10T07:15:21.662Z,15.50
2017-08-10T07:17:49.979Z,15.60
2017-08-10T07:20:18.311Z,15.60
2017-08-10T07:22:46.627Z,15.70
2017-08-10T07:25:14.939Z,15.70
2017-08-10T07:27:43.275Z,15.80
2017-08-10T07:30:11.582Z,15.80
2017-08-10T07:32:39.920Z,15.90
2017-08-10T07:35:08.244Z,15.90
2017-08-10T07:37:36.575Z,16.00
2017-08-10T07:40:04.891Z,16.00
2017-08-10T07:42:32.458Z,16.00
2017-08-10T07:45:00.835Z,16.20
2017-08-10T07:47:29.143Z,16.20
2017-08-10T07:49:57.519Z,16.10
2017-08-10T07:52:25.839Z,16.10
2017-08-10T07:54:54.180Z,16.10
2017-08-10T07:57:22.491Z,16.10
2017-08-10T07:59:50.827Z,16.20
2017-08-10T08:02:19.147Z,16.30
2017-08-10T08:04:47.474Z,16.40
2017-08-10T08:07:15.828Z,16.50
2017-08-10T08:09:44.179Z,16.60
2017-08-10T08:12:11.732Z,16.60
2017-08-10T08:14:40.042Z,16.70
2017-08-10T08:17:08.379Z,16.70
2017-08-10T08:19:36.690Z,16.70
2017-08-10T08:22:05.021Z,16.70
2017-08-10T08:24:33.331Z,16.80
2017-08-10T08:27:01.659Z,16.90
2017-08-10T08:29:30.003Z,17.10
2017-08-10T08:31:58.328Z,17.20
2017-08-10T08:34:26.660Z,17.30
2017-08-10T08:36:54.968Z,17.40
2017-08-10T08:39:23.328Z,17.40
2017-08-10T08:41:51.638Z,17.40
2017-08-10T08:44:19.980Z,17.40
2017-08-10T08:46:48.282Z,17.50
2017-08-10T08:49:16.641Z,17.50
2017-08-10T08:51:44.963Z,17.50
2017-08-10T08:54:13.304Z,17.50
2017-08-10T08:56:41.603Z,17.50
2017-08-10T08:59:09.928Z,17.50
2017-08-10T09:01:38.251Z,17.40
2017-08-10T09:04:06.581Z,17.40
2017-08-10T09:06:34.903Z,17.40
2017-08-10T09:09:03.231Z,17.30
2017-08-10T09:11:31.555Z,17.10
2017-08-10T09:13:59.888Z,17.00
2017-08-10T09:16:28.222Z,16.90
2017-08-10T09:18:56.552Z,16.90
2017-08-10T09:21:24.860Z,16.90
2017-08-10T09:23:53.221Z,16.80
2017-08-10T09:26:21.529Z,16.90
2017-08-10T09:28:49.862Z,17.00
2017-08-10T09:31:18.200Z,17.00
2017-08-10T09:33:46.551Z,17.00
2017-08-10T09:36:14.885Z,16.90
2017-08-10T09:38:43.248Z,16.90
2017-08-10T09:41:11.582Z,16.90
2017-08-10T09:43:40.021Z,17.00
2017-08-10T09:46:08.353Z,17.00
2017-08-10T09:48:36.680Z,17.20
2017-08-10T09:51:05.028Z,17.50
2017-08-10T09:53:33.338Z,17.60
2017-08-10T09:56:01.742Z,17.70
2017-08-10T09:58:30.043Z,17.70
2017-08-10T10:00:58.377Z,17.80
2017-08-10T10:03:26.696Z,17.80
2017-08-10T10:05:55.043Z,17.80
2017-08-10T10:08:23.353Z,17.70
2017-08-10T10:10:51.667Z,17.60
2017-08-10T10:13:20.076Z,17.50
2017-08-10T10:15:48.381Z,17.40
2017-08-10T10:18:16.731Z,17.40
2017-08-10T10:20:45.035Z,17.40
2017-08-10T10:23:13.399Z,17.40
2017-08-10T10:25:41.707Z,17.40
2017-08-10T10:28:10.115Z,17.40
2017-08-10T10:30:38.443Z,17.40
2017-08-10T10:33:06.776Z,17.40
2017-08-10T10:35:35.096Z,17.40
2017-08-10T10:38:03.427Z,17.50
2017-08-10T10:40:31.758Z,17.70
2017-08-10T10:43:00.179Z,17.80
2017-08-10T10:45:28.511Z,17.80
2017-08-10T10:47:56.828Z,17.90
2017-08-10T10:50:25.131Z,17.90
2017-08-10T10:52:53.506Z,17.80
2017-08-10T10:55:21.810Z,17.80
2017-08-10T10:57:50.159Z,17.70
2017-08-10T11:00:18.467Z,17.70
2017-08-10T11:02:46.033Z,17.70
2017-08-10T11:05:14.330Z,17.90
2017-08-10T11:07:42.667Z,18.00
2017-08-10T11:10:10.966Z,18.10
2017-08-10T11:12:39.283Z,18.10
2017-08-10T11:15:07.624Z,18.20
2017-08-10T11:17:35.935Z,18.20
2017-08-10T11:20:04.261Z,18.30
2017-08-10T11:22:32.602Z,18.30
2017-08-10T11:25:00.925Z,18.30
2017-08-10T11:27:29.248Z,18.30
2017-08-10T11:29:57.576Z,18.30
2017-08-10T11:32:25.907Z,18.20
2017-08-10T11:34:54.256Z,18.00
2017-08-10T11:37:22.555Z,18.00
2017-08-10T11:39:50.869Z,18.20
2017-08-10T11:42:19.236Z,18.50
2017-08-10T11:44:47.547Z,18.90
2017-08-10T11:47:15.891Z,19.10
2017-08-10T11:49:44.196Z,19.10
2017-08-10T11:52:12.542Z,19.00
2017-08-10T11:54:40.843Z,18.80
2017-08-10T11:57:09.205Z,18.60
2017-08-10T11:59:37.522Z,18.40
2017-08-10T12:02:05.991Z,18.30
2017-08-10T12:04:34.314Z,18.40
2017-08-10T12:07:02.620Z,18.50
2017-08-10T12:09:30.947Z,18.60
2017-08-10T12:11:59.344Z,18.70
2017-08-10T12:14:27.671Z,18.60
2017-08-10T12:16:55.997Z,18.40
2017-08-10T12:19:24.333Z,18.30
2017-08-10T12:21:52.658Z,18.10
2017-08-10T12:24:20.986Z,18.00
2017-08-10T12:26:49.307Z,18.00
2017-08-10T12:29:17.708Z,17.90
2017-08-10T12:31:46.019Z,17.90
2017-08-10T12:34:14.345Z,17.90
2017-08-10T12:36:42.671Z,17.90
2017-08-10T12:39:10.995Z,17.70
2017-08-10T12:41:39.330Z,17.70
2017-08-10T12:44:07.748Z,17.80
2017-08-10T12:46:36.066Z,17.70
2017-08-10T12:49:04.370Z,17.70
2017-08-10T12:51:32.692Z,17.60
2017-08-10T12:54:01.063Z,17.60
2017-08-10T12:56:29.397Z,17.70
2017-08-10T12:58:57.711Z,17.80
2017-08-10T13:01:26.029Z,17.80
2017-08-10T13:03:54.393Z,17.70
2017-08-10T13:06:22.696Z,17.50
2017-08-10T13:08:51.043Z,17.40
2017-08-10T13:11:19.343Z,17.40
2017-08-10T13:13:47.700Z,17.30
2017-08-10T13:16:16.004Z,17.30
2017-08-10T13:18:44.325Z,17.30
2017-08-10T13:21:12.639Z,17.30
2017-08-10T13:23:41.007Z,17.40
2017-08-10T13:26:09.311Z,17.50
2017-08-10T13:28:37.642Z,17.60
2017-08-10T13:31:06.054Z,17.60
2017-08-10T13:33:34.360Z,17.50
2017-08-10T13:36:02.703Z,17.30
2017-08-10T13:38:31.084Z,17.30
2017-08-10T13:40:59.410Z,17.40
2017-08-10T13:43:27.814Z,17.50
2017-08-10T13:45:56.196Z,17.50
2017-08-10T13:48:24.562Z,17.50
2017-08-10T13:50:52.888Z,17.40
2017-08-10T13:53:21.218Z,17.40
2017-08-10T13:55:49.542Z,17.50
2017-08-10T13:58:17.923Z,17.60
2017-08-10T14:00:46.262Z,17.70
2017-08-10T14:03:14.684Z,17.70
2017-08-10T14:05:42.984Z,17.80
2017-08-10T14:08:11.308Z,17.60
2017-08-10T14:10:39.635Z,17.50
2017-08-10T14:13:07.959Z,17.50
2017-08-10T14:15:36.263Z,17.30
2017-08-10T14:18:04.617Z,17.10
2017-08-10T14:20:32.918Z,17.00
2017-08-10T14:23:01.272Z,16.90
2017-08-10T14:25:29.576Z,16.80
2017-08-10T14:27:57.912Z,16.80
2017-08-10T14:30:26.313Z,16.80
2017-08-10T14:32:54.620Z,16.80
2017-08-10T14:35:22.950Z,16.80
2017-08-10T14:37:51.270Z,16.80
2017-08-10T14:40:19.615Z,16.80
2017-08-10T14:42:47.962Z,16.80
2017-08-10T14:45:16.402Z,16.70
2017-08-10T14:47:44.702Z,16.60
2017-08-10T14:50:13.037Z,16.50
2017-08-10T14:52:41.355Z,16.50
2017-08-10T14:55:09.666Z,16.50
2017-08-10T14:57:37.992Z,16.50
2017-08-10T15:00:06.324Z,16.50
2017-08-10T15:02:34.647Z,16.60
2017-08-10T15:05:02.966Z,16.60
2017-08-10T15:07:31.288Z,16.70
2017-08-10T15:09:59.590Z,16.70
2017-08-10T15:12:27.914Z,16.80
2017-08-10T15:14:56.215Z,16.80
2017-08-10T15:17:24.559Z,16.80
2017-08-10T15:19:52.859Z,16.80
2017-08-10T15:22:21.162Z,16.90
2017-08-10T15:24:49.510Z,17.00
2017-08-10T15:27:17.815Z,17.00
2017-08-10T15:29:46.155Z,17.00
2017-08-10T15:32:14.459Z,17.00
2017-08-10T15:34:42.819Z,17.10
2017-08-10T15:37:11.126Z,17.20
2017-08-10T15:39:39.468Z,17.20
2017-08-10T15:42:07.770Z,17.30
2017-08-10T15:44:36.124Z,17.40
2017-08-10T15:47:04.432Z,17.40
2017-08-10T15:49:32.750Z,17.40
2017-08-10T15:52:01.075Z,17.30
2017-08-10T15:54:29.380Z,17.30
2017-08-10T15:56:57.703Z,17.40
2017-08-10T15:59:26.032Z,17.40
2017-08-10T16:01:54.355Z,17.50
2017-08-10T16:04:22.658Z,17.50
2017-08-10T16:06:51.002Z,17.50
2017-08-10T16:09:19.311Z,17.50
2017-08-10T16:11:47.613Z,17.40
2017-08-10T16:14:15.937Z,17.30
2017-08-10T16:16:44.245Z,17.30
2017-08-10T16:19:12.567Z,17.30
2017-08-10T16:21:40.869Z,17.30
2017-08-10T16:24:09.200Z,17.30
2017-08-10T16:26:37.516Z,17.40
2017-08-10T16:29:05.837Z,17.40
2017-08-10T16:31:34.139Z,17.30
2017-08-10T16:34:02.462Z,17.20
2017-08-10T16:36:30.775Z,17.20
2017-08-10T16:38:59.083Z,17.00
2017-08-10T16:41:27.410Z,17.00
2017-08-10T16:43:55.719Z,16.90
2017-08-10T16:46:24.078Z,16.80
2017-08-10T16:48:52.396Z,16.80
2017-08-10T16:51:20.724Z,16.70
2017-08-10T16:53:48.268Z,16.70
2017-08-10T16:56:16.638Z,16.60
2017-08-10T16:58:45.013Z,16.60
2017-08-10T17:01:13.350Z,16.60
2017-08-10T17:03:41.654Z,16.60
2017-08-10T17:06:09.983Z,16.60
2017-08-10T17:08:38.335Z,16.50
2017-08-10T17:11:06.672Z,16.50
2017-08-10T17:13:35.037Z,16.50
2017-08-10T17:16:03.340Z,16.40
2017-08-10T17:18:31.664Z,16.40
2017-08-10T17:20:59.993Z,16.30
2017-08-10T17:23:28.344Z,16.30
2017-08-10T17:25:56.647Z,16.20
2017-08-10T17:28:24.947Z,16.20
2017-08-10T17:30:53.273Z,16.20
2017-08-10T17:33:21.585Z,16.20
2017-08-10T17:35:49.907Z,16.20
2017-08-10T17:38:18.224Z,16.20
2017-08-10T17:40:46.558Z,16.10
2017-08-10T17:43:14.892Z,16.10
2017-08-10T17:45:43.223Z,16.10
2017-08-10T17:48:11.546Z,16.10
2017-08-10T17:50:39.882Z,16.10
2017-08-10T17:53:08.214Z,16.00
2017-08-10T17:55:36.519Z,15.90
2017-08-10T17:58:04.846Z,15.90
2017-08-10T18:00:33.164Z,15.90
2017-08-10T18:03:01.636Z,15.90
2017-08-10T18:05:29.942Z,15.90
2017-08-10T18:07:58.296Z,15.90
2017-08-10T18:10:26.608Z,15.80
2017-08-10T18:12:54.918Z,15.80
2017-08-10T18:15:23.250Z,15.80
2017-08-10T18:17:51.583Z,15.80
2017-08-10T18:20:19.919Z,15.70
2017-08-10T18:22:48.231Z,15.70
2017-08-10T18:25:16.582Z,15.70
2017-08-10T18:27:44.975Z,15.70
2017-08-10T18:30:13.302Z,15.60
2017-08-10T18:32:41.625Z,15.60
2017-08-10T18:35:09.961Z,15.60
2017-08-10T18:37:38.272Z,15.60
2017-08-10T18:40:06.627Z,15.60
2017-08-10T18:42:34.937Z,15.60
2017-08-10T18:45:03.255Z,15.60
2017-08-10T18:47:31.582Z,15.60
2017-08-10T18:49:59.900Z,15.60
2017-08-10T18:52:28.238Z,15.60
2017-08-10T18:54:56.551Z,15.60
2017-08-10T18:57:24.919Z,15.50
2017-08-10T18:59:53.231Z,15.60
2017-08-10T19:02:21.572Z,15.50
2017-08-10T19:04:49.883Z,15.50
2017-08-10T19:07:18.215Z,15.50
2017-08-10T19:09:46.582Z,15.50
2017-08-10T19:12:14.915Z,15.50
2017-08-10T19:14:43.223Z,15.40
2017-08-10T19:17:11.548Z,15.40
2017-08-10T19:19:39.913Z,15.40
2017-08-10T19:22:08.242Z,15.40
2017-08-10T19:24:36.615Z,15.40
2017-08-10T19:27:05.003Z,15.40
2017-08-10T19:29:33.335Z,15.50
2017-08-10T19:32:01.660Z,15.50
2017-08-10T19:34:30.008Z,15.40
2017-08-10T19:36:58.414Z,15.50
2017-08-10T19:39:26.775Z,15.50
2017-08-10T19:41:55.156Z,15.50
2017-08-10T19:44:23.495Z,15.50
2017-08-10T19:46:51.842Z,15.50
2017-08-10T19:49:20.160Z,15.50
2017-08-10T19:51:48.495Z,15.50
2017-08-10T19:54:16.810Z,15.50
2017-08-10T19:56:45.144Z,15.50
2017-08-10T19:59:13.454Z,15.50
2017-08-10T20:01:41.787Z,15.50
2017-08-10T20:04:10.106Z,15.50
2017-08-10T20:06:38.436Z,15.50
2017-08-10T20:09:06.768Z,15.50
2017-08-10T20:11:35.112Z,15.50
2017-08-10T20:14:03.423Z,15.50
2017-08-10T20:16:31.734Z,15.50
2017-08-10T20:19:00.075Z,15.40
2017-08-10T20:21:28.383Z,15.40
2017-08-10T20:23:56.711Z,15.40
2017-08-10T20:26:25.015Z,15.50
2017-08-10T20:28:53.348Z,15.50
2017-08-10T20:31:21.667Z,15.50
2017-08-10T20:33:50.003Z,15.40
2017-08-10T20:36:18.320Z,15.40
2017-08-10T20:38:46.675Z,15.40
2017-08-10T20:41:14.991Z,15.50
2017-08-10T20:43:43.310Z,15.50
2017-08-10T20:46:11.646Z,15.40
2017-08-10T20:48:39.957Z,15.40
2017-08-10T20:51:08.305Z,15.40
2017-08-10T20:53:36.615Z,15.40
2017-08-10T20:56:04.956Z,15.40
2017-08-10T20:58:33.266Z,15.40
2017-08-10T21:01:01.599Z,15.40
2017-08-10T21:03:29.914Z,15.40
2017-08-10T21:05:58.262Z,15.40
2017-08-10T21:08:26.565Z,15.30
2017-08-10T21:10:54.892Z,15.30
2017-08-10T21:13:23.224Z,15.30
2017-08-10T21:15:51.546Z,15.30
2017-08-10T21:18:19.887Z,15.30
2017-08-10T21:20:48.210Z,15.30
2017-08-10T21:23:16.540Z,15.30
2017-08-10T21:25:44.863Z,15.30
2017-08-10T21:28:13.256Z,15.30
2017-08-10T21:30:41.564Z,15.30
2017-08-10T21:33:10.014Z,15.20
2017-08-10T21:35:38.332Z,15.20
2017-08-10T21:38:06.670Z,15.20
2017-08-10T21:40:34.977Z,15.20
2017-08-10T21:43:03.303Z,15.20
2017-08-10T21:45:31.702Z,15.20
2017-08-10T21:48:00.012Z,15.20
2017-08-10T21:50:27.580Z,15.20
2017-08-10T21:52:55.895Z,15.20
2017-08-10T21:55:24.227Z,15.20
2017-08-10T21:57:52.552Z,15.20
2017-08-10T22:00:20.889Z,15.20
2017-08-10T22:02:49.200Z,15.10
2017-08-10T22:05:17.548Z,15.10
2017-08-10T22:07:45.860Z,15.10
2017-08-10T22:10:14.178Z,15.10
2017-08-10T22:12:42.508Z,15.10
2017-08-10T22:15:10.828Z,15.00
2017-08-10T22:17:39.184Z,15.00
2017-08-10T22:20:07.501Z,15.00
2017-08-10T22:22:35.846Z,14.90
2017-08-10T22:25:04.163Z,14.90
2017-08-10T22:27:32.500Z,14.90
2017-08-10T22:30:00.810Z,14.90
2017-08-10T22:32:29.120Z,14.90
2017-08-10T22:34:57.454Z,14.90
2017-08-10T22:37:25.767Z,14.90
2017-08-10T22:39:54.091Z,14.90
2017-08-10T22:42:22.410Z,14.80
2017-08-10T22:44:50.745Z,14.80
2017-08-10T22:47:19.054Z,14.80
2017-08-10T22:49:47.388Z,14.80
2017-08-10T22:52:15.690Z,14.80
2017-08-10T22:54:44.029Z,14.80
2017-08-10T22:57:12.338Z,14.80
2017-08-10T22:59:40.651Z,14.80
2017-08-10T23:02:08.982Z,14.80
2017-08-10T23:04:37.290Z,14.80
2017-08-10T23:07:05.629Z,14.80
2017-08-10T23:09:33.949Z,14.80
2017-08-10T23:12:02.285Z,14.80
2017-08-10T23:14:30.603Z,14.80
2017-08-10T23:16:58.931Z,14.80
2017-08-10T23:19:27.251Z,14.80
2017-08-10T23:21:55.590Z,14.70
2017-08-10T23:24:23.903Z,14.70
2017-08-10T23:26:52.214Z,14.80
2017-08-10T23:29:20.553Z,14.70
2017-08-10T23:31:48.866Z,14.70
2017-08-10T23:34:17.196Z,14.70
2017-08-10T23:36:45.515Z,14.70
2017-08-10T23:39:13.859Z,14.70
2017-08-10T23:41:42.175Z,14.70
2017-08-10T23:44:10.503Z,14.70
2017-08-10T23:46:38.827Z,14.70
2017-08-10T23:49:07.140Z,14.70
2017-08-10T23:51:35.479Z,14.80
2017-08-10T23:54:03.796Z,14.70
2017-08-10T23:56:32.135Z,14.70
2017-08-10T23:59:00.456Z,14.70
